Latest Weather Observations for Karratha

IDW60801

Issued at 6:33 pm WST Sunday 24 July 2016 (issued every 30 minutes, with the page automatically refreshed every 10 minutes)

About weather observations | Map of weather stations | Latest weather observations for WA | Other Formats
Station Details ID: 004083 Name: KARRATHA AERO Lat: -20.71 Lon: 116.77 Height: 5.3 m
Data from the previous 72 hours. | See also: Recent months at Karratha
Date/Time
WST
Temp
°C
App
Temp
°C
Dew
Point
°C
Rel
Hum
%
Delta-T
°C
Wind Press
QNH
hPa
Press
MSL
hPa
Rain since
9am
mm
Dir  Spd
km/h
Gust
km/h
Spd
kts
Gust
kts
24/06:30pm 23.6 19.2 11.6 47 6.7 SE 26 32 14 17 1016.5 1016.5 0.0
24/06:00pm 23.4 19.5 12.1 49 6.4 SE 24 30 13 16 1016.2 1016.2 0.0
24/05:30pm 23.2 20.8 12.5 51 6.1 ESE 17 20 9 11 1016.4 1016.4 0.0
24/05:00pm 22.8 21.5 13.6 56 5.3 E 13 19 7 10 1016.2 1016.2 0.0
24/04:30pm 23.1 21.9 12.7 52 6.0 ENE 11 15 6 8 1016.2 1016.2 0.0
24/04:00pm 23.5 20.5 11.9 48 6.6 E 19 24 10 13 1015.9 1015.9 0.0
24/03:30pm 23.5 18.8 11.9 48 6.6 ESE 28 33 15 18 1015.1 1015.1 0.0
24/03:00pm 23.3 20.0 11.7 48 6.5 ESE 20 24 11 13 1015.5 1015.5 0.0
24/02:30pm 23.2 20.0 11.9 49 6.4 E 20 28 11 15 1015.5 1015.5 0.0
24/02:00pm 23.1 19.5 11.8 49 6.4 ESE 22 28 12 15 1015.7 1015.7 0.0
24/01:30pm 23.0 17.9 12.0 50 6.2 ESE 30 35 16 19 1015.6 1015.6 0.0
24/01:00pm 22.5 18.5 13.0 55 5.4 E 26 35 14 19 1016.1 1016.1 0.0
24/12:30pm 22.3 18.6 12.8 55 5.4 E 24 30 13 16 1016.5 1016.5 0.0
24/12:00pm 21.6 17.5 12.7 57 5.0 ESE 26 32 14 17 1017.1 1017.1 0.0
24/11:30am 21.8 17.7 13.7 60 4.7 E 28 37 15 20 1017.3 1017.3 0.0
24/11:00am 21.3 16.9 14.0 63 4.2 E 30 35 16 19 1017.7 1017.7 0.0
24/10:30am 20.7 18.4 15.7 73 3.0 E 22 28 12 15 1018.4 1018.4 0.0
24/10:00am 21.2 18.9 14.6 66 3.9 E 20 28 11 15 1018.5 1018.5 0.0
24/09:30am 21.4 18.9 14.1 63 4.2 E 20 30 11 16 1018.2 1018.2 0.0
24/09:00am 21.7 18.3 13.6 60 4.7 ESE 24 32 13 17 1017.7 1017.7 0.0
24/08:30am 21.4 17.4 14.1 63 4.2 ESE 28 33 15 18 1017.2 1017.2 0.0
24/08:00am 21.0 17.8 14.2 65 3.9 E 24 30 13 16 1017.0 1017.0 0.0
24/07:30am 21.1 18.2 15.0 68 3.6 E 24 30 13 16 1016.2 1016.2 0.0
24/07:00am 21.2 19.1 14.6 66 3.9 ENE 19 28 10 15 1016.4 1016.4 0.0
24/06:30am 22.0 19.6 13.9 60 4.7 ESE 19 26 10 14 1016.2 1016.2 0.0
24/06:00am 21.8 19.3 14.2 62 4.4 SE 20 24 11 13 1015.7 1015.7 0.0
24/05:30am 21.8 21.7 14.9 65 4.1 ESE 9 15 5 8 1015.7 1015.7 0.0
24/05:00am 22.3 20.8 14.2 60 4.7 ESE 15 19 8 10 1015.4 1015.4 0.0
24/04:30am 21.9 21.4 15.0 65 4.1 ESE 11 13 6 7 1015.4 1015.4 0.0
24/04:00am 21.8 21.1 16.5 72 3.2 SE 15 19 8 10 1015.2 1015.2 0.0
24/03:30am 21.8 22.1 17.0 74 2.9 S 11 11 6 6 1015.5 1015.5 0.0
24/03:00am 22.1 24.4 16.8 72 3.2 CALM 0 0 0 0 1015.5 1015.5 0.0
24/02:30am 21.9 24.8 18.1 79 2.4 CALM 0 2 0 1 1015.4 1015.4 0.0
24/02:00am 22.0 25.0 18.4 80 2.3 CALM 0 0 0 0 1015.4 1015.4 0.0
24/01:30am 21.9 24.9 18.5 81 2.1 CALM 0 0 0 0 1015.7 1015.7 0.0
24/01:00am 21.7 24.7 18.5 82 2.0 CALM 0 0 0 0 1015.6 1015.6 0.0
24/12:30am 21.8 23.5 18.4 81 2.1 NE 7 9 4 5 1015.5 1015.5 0.0
24/12:00am 21.7 23.2 18.1 80 2.2 ESE 7 9 4 5 1015.4 1015.4 0.0
 
Date/Time
WST
Temp
°C
App
Temp
°C
Dew
Point
°C
Rel
Hum
%
Delta-T
°C
Wind Press
QNH
hPa
Press
MSL
hPa
Rain since
9am
mm
Dir  Spd
km/h
Gust
km/h
Spd
kts
Gust
kts
23/11:30pm 21.6 23.2 17.8 79 2.4 ESE 6 9 3 5 1015.5 1015.5 0.0
23/11:00pm 21.9 23.4 17.7 77 2.6 E 6 7 3 4 1015.4 1015.4 0.0
23/10:30pm 22.3 24.9 17.4 74 3.0 CALM 0 4 0 2 1015.5 1015.5 0.0
23/10:00pm 22.1 24.7 17.5 75 2.8 CALM 0 0 0 0 1015.4 1015.4 0.0
23/09:30pm 22.2 23.4 17.3 74 3.0 SW 7 7 4 4 1015.2 1015.2 0.0
23/09:00pm 22.3 23.1 17.2 73 3.1 SW 9 13 5 7 1015.1 1015.1 0.0
23/08:30pm 22.7 22.4 17.4 72 3.3 WSW 15 17 8 9 1015.2 1015.2 0.0
23/08:00pm 22.9 21.9 16.7 68 3.8 WSW 17 22 9 12 1015.3 1015.3 0.0
23/07:30pm 23.1 22.3 17.1 69 3.7 WSW 17 20 9 11 1015.2 1015.2 0.0
23/07:00pm 23.2 21.5 17.2 69 3.7 W 22 26 12 14 1014.9 1014.9 0.0
23/06:30pm 24.3 23.5 15.2 57 5.5 W 13 15 7 8 1014.5 1014.5 0.0
23/06:00pm 24.6 24.8 14.7 54 5.9 WSW 7 11 4 6 1014.3 1014.3 0.0
23/05:30pm 25.0 24.3 11.9 44 7.5 NW 7 11 4 6 1014.0 1014.0 0.0
23/05:00pm 25.1 25.8 12.3 45 7.3 CALM 0 4 0 2 1013.9 1013.9 0.0
23/04:30pm 25.4 24.3 11.9 43 7.7 NE 9 11 5 6 1013.8 1013.8 0.0
23/04:00pm 25.7 23.7 11.5 41 8.1 NE 13 15 7 8 1013.8 1013.8 0.0
23/03:30pm 25.7 23.8 11.8 42 7.9 NE 13 15 7 8 1014.0 1014.0 0.0
23/03:00pm 25.7 24.2 11.8 42 7.9 NE 11 15 6 8 1014.3 1014.3 0.0
23/02:30pm 25.5 23.7 12.0 43 7.7 NNE 13 17 7 9 1014.6 1014.6 0.0
23/02:00pm 24.9 22.9 12.8 47 7.0 NNE 15 19 8 10 1015.1 1015.1 0.0
23/01:30pm 24.4 22.8 13.9 52 6.2 NNE 15 17 8 9 1015.4 1015.4 0.0
23/01:00pm 23.9 21.8 13.7 53 6.0 NNE 17 20 9 11 1015.5 1015.5 0.0
23/12:30pm 25.1 23.6 14.3 51 6.4 NE 15 20 8 11 1015.9 1015.9 0.0
23/12:00pm 24.6 22.5 13.5 50 6.5 NE 17 20 9 11 1016.3 1016.3 0.0
23/11:30am 24.0 22.4 13.8 53 6.0 NE 15 19 8 10 1016.6 1016.6 0.0
23/11:00am 24.2 22.3 13.1 50 6.4 NE 15 20 8 11 1017.0 1017.0 0.0
23/10:30am 23.8 21.4 12.8 50 6.3 ENE 17 20 9 11 1017.3 1017.3 0.0
23/10:00am 23.0 21.6 14.6 59 5.0 ENE 15 20 8 11 1017.6 1017.6 0.0
23/09:30am 22.9 21.7 13.9 57 5.3 ENE 13 17 7 9 1017.5 1017.5 0.0
23/09:00am 21.9 20.9 14.5 63 4.3 ENE 13 17 7 9 1017.4 1017.4 0.0
23/08:30am 21.1 20.8 14.5 66 3.9 NE 9 11 5 6 1017.1 1017.1 0.0
23/08:00am 20.5 21.7 13.9 66 3.8 CALM 0 0 0 0 1017.2 1017.2 0.0
23/07:30am 20.5 19.7 13.0 62 4.3 E 9 13 5 7 1016.8 1016.8 0.0
23/07:00am 20.2 19.5 13.2 64 4.0 ENE 9 11 5 6 1016.5 1016.5 0.0
23/06:30am 20.9 19.8 11.8 56 5.1 ESE 9 11 5 6 1016.0 1016.0 0.0
23/06:00am 21.2 19.2 11.5 54 5.4 ESE 13 17 7 9 1015.6 1015.6 0.0
23/05:30am 20.1 19.5 12.3 61 4.4 SE 7 11 4 6 1015.5 1015.5 0.0
23/05:00am 20.1 19.3 12.8 63 4.1 SSE 9 13 5 7 1015.4 1015.4 0.0
23/04:30am 20.2 18.7 13.2 64 4.0 S 13 15 7 8 1015.4 1015.4 0.0
23/04:00am 20.6 19.4 11.5 56 5.0 SSE 9 11 5 6 1015.3 1015.3 0.0
23/03:30am 20.9 19.6 11.3 54 5.3 SE 9 13 5 7 1015.4 1015.4 0.0
23/03:00am 20.8 20.3 12.5 59 4.7 SE 7 9 4 5 1015.7 1015.7 0.0
23/02:30am 20.4 20.5 14.5 69 3.4 SE 7 9 4 5 1015.9 1015.9 0.0
23/02:00am 20.7 20.1 13.6 64 4.1 SSE 9 11 5 6 1016.1 1016.1 0.0
23/01:30am 20.8 19.4 13.5 63 4.2 SSE 13 15 7 8 1016.3 1016.3 0.0
23/01:00am 20.7 19.4 13.6 64 4.1 S 13 15 7 8 1016.4 1016.4 0.0
23/12:30am 20.7 19.7 13.4 63 4.2 SSE 11 13 6 7 1016.2 1016.2 0.0
23/12:00am 20.7 20.0 13.2 62 4.3 S 9 9 5 5 1016.1 1016.1 0.0
 
Date/Time
WST
Temp
°C
App
Temp
°C
Dew
Point
°C
Rel
Hum
%
Delta-T
°C
Wind Press
QNH
hPa
Press
MSL
hPa
Rain since
9am
mm
Dir  Spd
km/h
Gust
km/h
Spd
kts
Gust
kts
22/11:30pm 21.0 20.3 13.2 61 4.5 SSE 9 11 5 6 1016.1 1016.1 0.0
22/11:00pm 21.2 20.1 13.1 60 4.6 S 11 11 6 6 1016.1 1016.1 0.0
22/10:30pm 21.3 21.1 13.7 62 4.4 SSE 7 9 4 5 1016.1 1016.1 0.0
22/10:00pm 21.3 21.2 14.0 63 4.2 S 7 9 4 5 1016.0 1016.0 0.0
22/09:30pm 21.2 21.4 14.6 66 3.9 S 7 9 4 5 1015.9 1015.9 0.0
22/09:00pm 21.2 21.5 14.4 65 4.0 SSW 6 9 3 5 1016.0 1016.0 0.0
22/08:30pm 21.6 20.9 14.3 63 4.3 SW 11 13 6 7 1015.8 1015.8 0.0
22/08:00pm 21.8 21.3 14.9 65 4.1 WSW 11 13 6 7 1015.5 1015.5 0.0
22/07:30pm 22.1 21.3 15.0 64 4.2 WSW 13 17 7 9 1015.2 1015.2 0.0
22/07:00pm 22.2 23.2 15.3 65 4.1 WSW 4 13 2 7 1015.0 1015.0 0.0
22/06:30pm 22.5 22.1 15.1 63 4.4 WSW 11 13 6 7 1014.8 1014.8 0.0
22/06:00pm 22.5 21.6 13.6 57 5.2 WSW 11 13 6 7 1014.4 1014.4 0.0
22/05:30pm 22.7 21.6 13.2 55 5.5 WSW 11 13 6 7 1014.2 1014.2 0.0
22/05:00pm 23.3 22.4 13.8 55 5.5 WSW 11 13 6 7 1014.1 1014.1 0.0
22/04:30pm 23.7 23.6 14.9 57 5.2 WSW 9 11 5 6 1014.3 1014.3 0.0
22/04:00pm 24.9 23.5 9.6 38 8.4 W 7 9 4 5 1014.4 1014.4 0.0
22/03:30pm 25.4 25.1 10.1 38 8.5 WNW 2 7 1 4 1014.3 1014.3 0.0
22/03:00pm 25.7 25.4 8.7 34 9.2 CALM 0 0 0 0 1014.2 1014.2 0.0
22/02:30pm 25.7 25.5 9.1 35 9.0 CALM 0 0 0 0 1014.3 1014.3 0.0
22/02:00pm 24.6 23.5 10.1 40 8.0 NNW 6 9 3 5 1014.6 1014.6 0.0
22/01:30pm 24.6 24.4 10.5 41 7.8 NNW 2 7 1 4 1014.8 1014.8 0.0
22/01:00pm 24.2 22.9 9.8 40 7.9 NW 7 9 4 5 1015.4 1015.4 0.0
22/12:30pm 23.9 23.0 10.6 43 7.4 WNW 6 9 3 5 1015.7 1015.7 0.0
22/12:00pm 23.6 23.7 10.3 43 7.3 CALM 0 0 0 0 1016.0 1016.0 0.0
22/11:30am 24.1 23.8 8.5 37 8.3 CALM 0 6 0 3 1016.3 1016.3 0.0
22/11:00am 23.4 23.0 8.3 38 8.0 CALM 0 6 0 3 1016.8 1016.8 0.0
22/10:30am 22.6 22.0 9.0 42 7.3 ENE 2 7 1 4 1017.0 1017.0 0.0
22/10:00am 21.6 20.4 9.5 46 6.5 ENE 6 9 3 5 1017.0 1017.0 0.0
22/09:30am 21.4 20.0 9.6 47 6.3 SE 7 7 4 4 1016.8 1016.8 0.0
22/09:00am 20.9 19.0 9.2 47 6.2 SW 9 11 5 6 1016.9 1016.9 0.0
22/08:30am 20.1 20.5 11.1 56 4.9 CALM 0 0 0 0 1016.5 1016.5 0.0
22/08:00am 19.9 20.0 10.3 54 5.2 CALM 0 0 0 0 1016.1 1016.1 0.0
22/07:30am 19.6 19.2 8.3 48 5.9 CALM 0 0 0 0 1015.9 1015.9 0.0
22/07:00am 19.4 18.9 9.3 52 5.3 WSW 2 6 1 3 1015.6 1015.6 0.0
22/06:30am 19.8 17.0 8.5 48 5.9 SSE 13 15 7 8 1015.3 1015.3 0.0
22/06:00am 18.6 16.8 9.4 55 4.8 SE 9 11 5 6 1014.9 1014.9 0.0
22/05:30am 18.5 16.1 8.7 53 5.1 SSE 11 15 6 8 1014.9 1014.9 0.0
22/05:00am 18.2 16.5 8.5 53 5.0 SSW 7 9 4 5 1015.1 1015.1 0.0
22/04:30am 18.0 16.0 8.6 54 4.9 SW 9 11 5 6 1015.2 1015.2 0.0
22/04:00am 18.2 16.5 7.6 50 5.4 S 6 9 3 5 1015.1 1015.1 0.0
22/03:30am 17.9 16.2 7.6 51 5.2 S 6 7 3 4 1015.1 1015.1 0.0
22/03:00am 17.9 15.9 7.3 50 5.3 S 7 9 4 5 1015.1 1015.1 0.0
22/02:30am 16.8 15.4 7.4 54 4.7 SSE 4 9 2 5 1015.2 1015.2 0.0
22/02:00am 17.2 14.9 7.3 52 4.9 SSW 9 13 5 7 1015.4 1015.4 0.0
22/01:30am 17.4 16.3 6.9 50 5.2 SSE 2 7 1 4 1015.7 1015.7 0.0
22/01:00am 18.5 16.0 6.4 45 6.0 SSW 9 13 5 7 1015.9 1015.9 0.0
22/12:30am 18.5 16.0 6.4 45 6.0 SW 9 11 5 6 1016.0 1016.0 0.0
22/12:00am 19.5 16.5 5.9 41 6.7 SSW 11 13 6 7 1016.1 1016.1 0.0
 
Date/Time
WST
Temp
°C
App
Temp
°C
Dew
Point
°C
Rel
Hum
%
Delta-T
°C
Wind Press
QNH
hPa
Press
MSL
hPa
Rain since
9am
mm
Dir  Spd
km/h
Gust
km/h
Spd
kts
Gust
kts
21/11:30pm 19.6 16.7 6.4 42 6.6 SSW 11 15 6 8 1016.2 1016.2 0.0
21/11:00pm 20.3 16.5 5.9 39 7.1 SSW 15 19 8 10 1016.4 1016.4 0.0
21/10:30pm 20.9 17.5 5.7 37 7.6 SSW 13 19 7 10 1016.4 1016.4 0.0
21/10:00pm 21.2 17.4 5.9 37 7.6 SW 15 17 8 9 1016.4 1016.4 0.0
21/09:30pm 20.4 16.4 6.7 41 6.9 SW 17 19 9 10 1016.3 1016.3 0.0
21/09:00pm 20.4 16.8 6.7 41 6.9 SW 15 17 8 9 1016.2 1016.2 0.0
21/08:30pm 20.7 16.7 6.6 40 7.1 SW 17 19 9 10 1016.0 1016.0 0.0
21/08:00pm 21.3 17.2 6.4 38 7.5 SW 17 19 9 10 1015.7 1015.7 0.0
21/07:30pm 22.2 17.8 6.4 36 8.0 SW 19 22 10 12 1015.3 1015.3 0.0
21/07:00pm 23.0 19.0 8.3 39 7.8 WSW 19 20 10 11 1014.8 1014.8 0.0

Other Formats:

Comma delimited format used in spreadsheet applications
http://www.bom.gov.au/fwo/IDW60801/IDW60801.95307.axf

JavaScript Object Notation format (JSON) in row-major order
http://www.bom.gov.au/fwo/IDW60801/IDW60801.95307.json